sensor_id;sensor_type;location;lat;lon;timestamp;P1;durP1;ratioP1;P2;durP2;ratioP2
41952;SDS011;47381;28.206;112.926;2022-07-06T00:01:22;2.33;;;1.75;;
41952;SDS011;47381;28.206;112.926;2022-07-06T00:03:49;3.47;;;1.83;;
41952;SDS011;47381;28.206;112.926;2022-07-06T00:06:16;1.88;;;1.65;;
41952;SDS011;47381;28.206;112.926;2022-07-06T00:08:44;3.70;;;2.35;;
41952;SDS011;47381;28.206;112.926;2022-07-06T00:11:11;2.00;;;1.90;;
41952;SDS011;47381;28.206;112.926;2022-07-06T00:13:38;2.92;;;1.90;;
41952;SDS011;47381;28.206;112.926;2022-07-06T00:16:05;2.60;;;2.05;;
41952;SDS011;47381;28.206;112.926;2022-07-06T00:18:36;2.20;;;2.00;;
41952;SDS011;47381;28.206;112.926;2022-07-06T00:21:03;4.72;;;1.90;;
41952;SDS011;47381;28.206;112.926;2022-07-06T00:23:30;2.08;;;1.83;;
41952;SDS011;47381;28.206;112.926;2022-07-06T00:25:57;2.85;;;2.35;;
41952;SDS011;47381;28.206;112.926;2022-07-06T00:28:24;5.00;;;2.22;;
41952;SDS011;47381;28.206;112.926;2022-07-06T00:30:52;2.33;;;2.13;;
41952;SDS011;47381;28.206;112.926;2022-07-06T00:33:39;2.28;;;2.08;;
41952;SDS011;47381;28.206;112.926;2022-07-06T00:36:06;3.40;;;2.30;;
41952;SDS011;47381;28.206;112.926;2022-07-06T00:38:33;3.22;;;2.42;;
41952;SDS011;47381;28.206;112.926;2022-07-06T00:41:00;4.25;;;2.60;;
41952;SDS011;47381;28.206;112.926;2022-07-06T00:43:28;2.78;;;2.30;;
41952;SDS011;47381;28.206;112.926;2022-07-06T00:45:55;3.78;;;2.40;;
41952;SDS011;47381;28.206;112.926;2022-07-06T00:48:22;2.83;;;2.15;;
41952;SDS011;47381;28.206;112.926;2022-07-06T00:51:11;2.88;;;2.25;;
41952;SDS011;47381;28.206;112.926;2022-07-06T00:53:39;2.47;;;2.10;;
41952;SDS011;47381;28.206;112.926;2022-07-06T00:56:07;2.70;;;2.40;;
41952;SDS011;47381;28.206;112.926;2022-07-06T00:58:35;2.17;;;2.08;;
41952;SDS011;47381;28.206;112.926;2022-07-06T01:01:03;3.13;;;2.38;;
41952;SDS011;47381;28.206;112.926;2022-07-06T01:03:30;2.80;;;2.50;;
41952;SDS011;47381;28.206;112.926;2022-07-06T01:05:58;2.50;;;2.33;;
41952;SDS011;47381;28.206;112.926;2022-07-06T01:08:25;3.95;;;2.38;;
41952;SDS011;47381;28.206;112.926;2022-07-06T01:10:53;3.95;;;2.30;;
41952;SDS011;47381;28.206;112.926;2022-07-06T01:13:20;3.00;;;2.30;;
41952;SDS011;47381;28.206;112.926;2022-07-06T01:15:47;4.90;;;3.42;;
41952;SDS011;47381;28.206;112.926;2022-07-06T01:18:14;2.95;;;2.33;;
41952;SDS011;47381;28.206;112.926;2022-07-06T01:20:42;4.53;;;2.55;;
41952;SDS011;47381;28.206;112.926;2022-07-06T01:23:09;4.47;;;3.15;;
41952;SDS011;47381;28.206;112.926;2022-07-06T01:25:36;3.83;;;2.72;;
41952;SDS011;47381;28.206;112.926;2022-07-06T01:28:03;5.90;;;3.30;;
41952;SDS011;47381;28.206;112.926;2022-07-06T01:30:31;4.38;;;2.88;;
41952;SDS011;47381;28.206;112.926;2022-07-06T01:32:58;7.57;;;4.40;;
41952;SDS011;47381;28.206;112.926;2022-07-06T01:35:25;4.57;;;3.45;;
41952;SDS011;47381;28.206;112.926;2022-07-06T01:37:55;4.80;;;3.83;;
41952;SDS011;47381;28.206;112.926;2022-07-06T01:40:22;5.85;;;3.60;;
41952;SDS011;47381;28.206;112.926;2022-07-06T01:43:09;4.00;;;3.65;;
41952;SDS011;47381;28.206;112.926;2022-07-06T01:45:36;7.78;;;3.75;;
41952;SDS011;47381;28.206;112.926;2022-07-06T01:48:07;4.80;;;3.25;;
41952;SDS011;47381;28.206;112.926;2022-07-06T01:50:34;4.68;;;3.50;;
41952;SDS011;47381;28.206;112.926;2022-07-06T01:53:02;6.85;;;3.35;;
41952;SDS011;47381;28.206;112.926;2022-07-06T01:55:49;5.90;;;3.28;;
41952;SDS011;47381;28.206;112.926;2022-07-06T01:58:16;2.35;;;2.15;;
41952;SDS011;47381;28.206;112.926;2022-07-06T02:00:43;2.28;;;2.08;;
41952;SDS011;47381;28.206;112.926;2022-07-06T02:03:10;3.42;;;2.63;;
41952;SDS011;47381;28.206;112.926;2022-07-06T02:05:37;2.90;;;2.63;;
41952;SDS011;47381;28.206;112.926;2022-07-06T02:08:04;6.05;;;3.80;;
41952;SDS011;47381;28.206;112.926;2022-07-06T02:10:32;5.05;;;3.35;;
41952;SDS011;47381;28.206;112.926;2022-07-06T02:13:19;5.78;;;2.70;;
41952;SDS011;47381;28.206;112.926;2022-07-06T02:15:46;5.43;;;2.75;;
41952;SDS011;47381;28.206;112.926;2022-07-06T02:18:26;2.42;;;2.10;;
41952;SDS011;47381;28.206;112.926;2022-07-06T02:21:16;6.70;;;3.67;;
41952;SDS011;47381;28.206;112.926;2022-07-06T02:23:43;3.67;;;3.08;;
41952;SDS011;47381;28.206;112.926;2022-07-06T02:26:10;4.68;;;2.90;;
41952;SDS011;47381;28.206;112.926;2022-07-06T02:28:37;4.10;;;3.08;;
41952;SDS011;47381;28.206;112.926;2022-07-06T02:31:05;4.63;;;4.13;;
41952;SDS011;47381;28.206;112.926;2022-07-06T02:33:34;6.15;;;4.35;;
41952;SDS011;47381;28.206;112.926;2022-07-06T02:36:01;5.75;;;4.70;;
41952;SDS011;47381;28.206;112.926;2022-07-06T02:38:29;6.45;;;4.30;;
41952;SDS011;47381;28.206;112.926;2022-07-06T02:40:56;5.38;;;4.38;;
41952;SDS011;47381;28.206;112.926;2022-07-06T02:43:23;7.38;;;4.28;;
41952;SDS011;47381;28.206;112.926;2022-07-06T02:45:50;8.57;;;4.18;;
41952;SDS011;47381;28.206;112.926;2022-07-06T02:48:17;6.18;;;3.58;;
41952;SDS011;47381;28.206;112.926;2022-07-06T02:50:47;3.80;;;3.40;;
41952;SDS011;47381;28.206;112.926;2022-07-06T02:53:14;3.83;;;3.22;;
41952;SDS011;47381;28.206;112.926;2022-07-06T02:55:43;5.80;;;3.65;;
41952;SDS011;47381;28.206;112.926;2022-07-06T02:58:30;5.80;;;3.97;;
41952;SDS011;47381;28.206;112.926;2022-07-06T03:00:57;5.03;;;3.97;;
41952;SDS011;47381;28.206;112.926;2022-07-06T03:03:24;5.57;;;4.82;;
41952;SDS011;47381;28.206;112.926;2022-07-06T03:05:51;5.90;;;4.10;;
41952;SDS011;47381;28.206;112.926;2022-07-06T03:08:38;5.32;;;4.30;;
41952;SDS011;47381;28.206;112.926;2022-07-06T03:11:05;6.60;;;3.78;;
41952;SDS011;47381;28.206;112.926;2022-07-06T03:13:32;7.63;;;4.47;;
41952;SDS011;47381;28.206;112.926;2022-07-06T03:16:00;8.57;;;4.68;;
41952;SDS011;47381;28.206;112.926;2022-07-06T03:18:27;6.80;;;4.07;;
41952;SDS011;47381;28.206;112.926;2022-07-06T03:20:54;4.72;;;4.25;;
41952;SDS011;47381;28.206;112.926;2022-07-06T03:23:22;6.65;;;4.85;;
41952;SDS011;47381;28.206;112.926;2022-07-06T03:25:49;6.05;;;4.00;;
41952;SDS011;47381;28.206;112.926;2022-07-06T03:28:16;6.28;;;4.03;;
41952;SDS011;47381;28.206;112.926;2022-07-06T03:30:43;6.93;;;4.50;;
41952;SDS011;47381;28.206;112.926;2022-07-06T03:33:10;4.85;;;4.38;;
41952;SDS011;47381;28.206;112.926;2022-07-06T03:35:37;5.43;;;3.97;;
41952;SDS011;47381;28.206;112.926;2022-07-06T03:38:04;4.18;;;3.60;;
41952;SDS011;47381;28.206;112.926;2022-07-06T03:40:31;5.18;;;4.00;;
41952;SDS011;47381;28.206;112.926;2022-07-06T03:42:59;4.43;;;3.67;;
41952;SDS011;47381;28.206;112.926;2022-07-06T03:45:26;5.00;;;3.97;;
41952;SDS011;47381;28.206;112.926;2022-07-06T03:47:53;5.18;;;4.32;;
41952;SDS011;47381;28.206;112.926;2022-07-06T03:50:20;5.82;;;3.72;;
41952;SDS011;47381;28.206;112.926;2022-07-06T03:52:47;3.65;;;3.35;;
41952;SDS011;47381;28.206;112.926;2022-07-06T03:55:15;3.95;;;3.55;;
41952;SDS011;47381;28.206;112.926;2022-07-06T03:57:42;6.13;;;4.70;;
41952;SDS011;47381;28.206;112.926;2022-07-06T04:00:09;6.60;;;4.07;;
41952;SDS011;47381;28.206;112.926;2022-07-06T04:02:37;7.95;;;4.20;;
41952;SDS011;47381;28.206;112.926;2022-07-06T04:05:04;5.55;;;4.07;;
41952;SDS011;47381;28.206;112.926;2022-07-06T04:07:31;8.45;;;3.97;;
41952;SDS011;47381;28.206;112.926;2022-07-06T04:09:59;7.88;;;5.13;;
41952;SDS011;47381;28.206;112.926;2022-07-06T04:12:26;6.53;;;4.45;;
41952;SDS011;47381;28.206;112.926;2022-07-06T04:14:56;6.65;;;4.82;;
41952;SDS011;47381;28.206;112.926;2022-07-06T04:17:24;5.55;;;4.45;;
41952;SDS011;47381;28.206;112.926;2022-07-06T04:20:09;6.82;;;4.85;;
41952;SDS011;47381;28.206;112.926;2022-07-06T04:22:39;5.47;;;4.97;;
41952;SDS011;47381;28.206;112.926;2022-07-06T04:25:08;7.68;;;4.80;;
41952;SDS011;47381;28.206;112.926;2022-07-06T04:27:36;9.25;;;4.90;;
41952;SDS011;47381;28.206;112.926;2022-07-06T04:30:04;7.00;;;5.38;;
41952;SDS011;47381;28.206;112.926;2022-07-06T04:32:31;6.72;;;5.68;;
41952;SDS011;47381;28.206;112.926;2022-07-06T04:34:59;6.75;;;4.75;;
41952;SDS011;47381;28.206;112.926;2022-07-06T04:37:26;6.22;;;4.35;;
41952;SDS011;47381;28.206;112.926;2022-07-06T04:39:53;6.90;;;4.82;;
41952;SDS011;47381;28.206;112.926;2022-07-06T04:42:23;7.78;;;5.95;;
41952;SDS011;47381;28.206;112.926;2022-07-06T04:44:51;17.85;;;12.77;;
41952;SDS011;47381;28.206;112.926;2022-07-06T04:47:18;22.95;;;15.52;;
41952;SDS011;47381;28.206;112.926;2022-07-06T04:49:45;34.00;;;24.15;;
41952;SDS011;47381;28.206;112.926;2022-07-06T04:52:12;38.63;;;26.02;;
41952;SDS011;47381;28.206;112.926;2022-07-06T04:54:39;44.00;;;30.33;;
41952;SDS011;47381;28.206;112.926;2022-07-06T04:57:07;48.65;;;32.40;;
41952;SDS011;47381;28.206;112.926;2022-07-06T04:59:34;51.65;;;34.42;;
41952;SDS011;47381;28.206;112.926;2022-07-06T05:02:01;58.45;;;38.70;;
41952;SDS011;47381;28.206;112.926;2022-07-06T05:04:28;54.40;;;38.97;;
41952;SDS011;47381;28.206;112.926;2022-07-06T05:06:55;55.70;;;37.72;;
41952;SDS011;47381;28.206;112.926;2022-07-06T05:09:24;56.42;;;37.78;;
41952;SDS011;47381;28.206;112.926;2022-07-06T05:11:52;53.78;;;35.92;;
41952;SDS011;47381;28.206;112.926;2022-07-06T05:14:45;51.67;;;34.08;;
41952;SDS011;47381;28.206;112.926;2022-07-06T05:17:15;54.10;;;37.10;;
41952;SDS011;47381;28.206;112.926;2022-07-06T05:19:42;55.30;;;36.95;;
41952;SDS011;47381;28.206;112.926;2022-07-06T05:22:09;57.22;;;37.97;;
41952;SDS011;47381;28.206;112.926;2022-07-06T05:24:36;57.15;;;38.08;;
41952;SDS011;47381;28.206;112.926;2022-07-06T05:27:04;57.72;;;39.63;;
41952;SDS011;47381;28.206;112.926;2022-07-06T05:29:31;59.00;;;41.08;;
41952;SDS011;47381;28.206;112.926;2022-07-06T05:31:58;49.63;;;34.78;;
41952;SDS011;47381;28.206;112.926;2022-07-06T05:34:25;51.35;;;35.53;;
41952;SDS011;47381;28.206;112.926;2022-07-06T05:36:53;45.55;;;32.17;;
41952;SDS011;47381;28.206;112.926;2022-07-06T05:39:20;41.38;;;28.75;;
41952;SDS011;47381;28.206;112.926;2022-07-06T05:41:48;43.67;;;29.58;;
41952;SDS011;47381;28.206;112.926;2022-07-06T05:44:17;39.15;;;29.52;;
41952;SDS011;47381;28.206;112.926;2022-07-06T05:46:45;38.75;;;28.67;;
41952;SDS011;47381;28.206;112.926;2022-07-06T05:49:13;35.28;;;25.13;;
41952;SDS011;47381;28.206;112.926;2022-07-06T05:51:58;28.88;;;21.05;;
41952;SDS011;47381;28.206;112.926;2022-07-06T05:54:25;28.33;;;20.73;;
41952;SDS011;47381;28.206;112.926;2022-07-06T05:56:52;27.92;;;20.60;;
41952;SDS011;47381;28.206;112.926;2022-07-06T05:59:19;24.52;;;17.08;;
41952;SDS011;47381;28.206;112.926;2022-07-06T06:01:46;21.50;;;16.23;;
41952;SDS011;47381;28.206;112.926;2022-07-06T06:04:16;24.92;;;17.80;;
41952;SDS011;47381;28.206;112.926;2022-07-06T06:06:44;24.73;;;18.98;;
41952;SDS011;47381;28.206;112.926;2022-07-06T06:09:12;27.35;;;20.00;;
41952;SDS011;47381;28.206;112.926;2022-07-06T06:11:40;28.80;;;21.17;;
41952;SDS011;47381;28.206;112.926;2022-07-06T06:14:10;32.85;;;23.73;;
41952;SDS011;47381;28.206;112.926;2022-07-06T06:16:43;42.63;;;30.65;;
41952;SDS011;47381;28.206;112.926;2022-07-06T06:19:10;64.38;;;44.30;;
41952;SDS011;47381;28.206;112.926;2022-07-06T06:21:38;68.95;;;44.28;;
41952;SDS011;47381;28.206;112.926;2022-07-06T06:24:05;61.15;;;43.08;;
41952;SDS011;47381;28.206;112.926;2022-07-06T06:26:32;61.95;;;39.08;;
41952;SDS011;47381;28.206;112.926;2022-07-06T06:29:00;66.25;;;37.88;;
41952;SDS011;47381;28.206;112.926;2022-07-06T06:31:27;57.97;;;37.55;;
41952;SDS011;47381;28.206;112.926;2022-07-06T06:33:55;58.17;;;36.97;;
41952;SDS011;47381;28.206;112.926;2022-07-06T06:36:22;59.13;;;38.97;;
41952;SDS011;47381;28.206;112.926;2022-07-06T06:38:49;55.15;;;35.53;;
41952;SDS011;47381;28.206;112.926;2022-07-06T06:41:16;50.83;;;35.70;;
41952;SDS011;47381;28.206;112.926;2022-07-06T06:43:46;51.05;;;34.90;;
41952;SDS011;47381;28.206;112.926;2022-07-06T06:46:13;52.00;;;35.95;;
41952;SDS011;47381;28.206;112.926;2022-07-06T06:48:40;50.47;;;35.03;;
41952;SDS011;47381;28.206;112.926;2022-07-06T06:51:16;53.13;;;35.35;;
41952;SDS011;47381;28.206;112.926;2022-07-06T06:53:56;52.55;;;33.63;;
41952;SDS011;47381;28.206;112.926;2022-07-06T06:56:24;47.70;;;32.92;;
41952;SDS011;47381;28.206;112.926;2022-07-06T06:58:51;47.72;;;32.42;;
41952;SDS011;47381;28.206;112.926;2022-07-06T07:04:39;45.33;;;30.95;;
41952;SDS011;47381;28.206;112.926;2022-07-06T07:07:07;42.35;;;29.77;;
41952;SDS011;47381;28.206;112.926;2022-07-06T07:09:59;42.15;;;30.65;;
41952;SDS011;47381;28.206;112.926;2022-07-06T07:12:28;42.00;;;30.13;;
41952;SDS011;47381;28.206;112.926;2022-07-06T07:14:55;44.28;;;32.20;;
41952;SDS011;47381;28.206;112.926;2022-07-06T07:20:16;37.83;;;29.73;;
41952;SDS011;47381;28.206;112.926;2022-07-06T07:22:45;39.65;;;28.60;;
41952;SDS011;47381;28.206;112.926;2022-07-06T07:25:12;40.35;;;28.63;;
41952;SDS011;47381;28.206;112.926;2022-07-06T07:27:39;42.97;;;30.15;;
41952;SDS011;47381;28.206;112.926;2022-07-06T07:30:06;43.42;;;30.52;;
41952;SDS011;47381;28.206;112.926;2022-07-06T07:32:34;41.42;;;28.67;;
41952;SDS011;47381;28.206;112.926;2022-07-06T07:35:01;40.83;;;28.45;;
41952;SDS011;47381;28.206;112.926;2022-07-06T07:37:31;41.80;;;28.17;;
41952;SDS011;47381;28.206;112.926;2022-07-06T07:39:58;37.80;;;26.58;;
41952;SDS011;47381;28.206;112.926;2022-07-06T07:42:27;38.50;;;27.70;;
41952;SDS011;47381;28.206;112.926;2022-07-06T07:44:59;40.60;;;28.50;;
41952;SDS011;47381;28.206;112.926;2022-07-06T07:47:53;37.40;;;26.90;;
41952;SDS011;47381;28.206;112.926;2022-07-06T07:50:25;40.40;;;29.95;;
41952;SDS011;47381;28.206;112.926;2022-07-06T07:52:54;36.58;;;26.83;;
41952;SDS011;47381;28.206;112.926;2022-07-06T07:55:22;38.22;;;27.00;;
41952;SDS011;47381;28.206;112.926;2022-07-06T07:57:49;35.17;;;27.45;;
41952;SDS011;47381;28.206;112.926;2022-07-06T08:00:16;35.75;;;26.13;;
41952;SDS011;47381;28.206;112.926;2022-07-06T08:02:43;36.50;;;27.02;;
41952;SDS011;47381;28.206;112.926;2022-07-06T08:05:10;36.40;;;26.80;;
41952;SDS011;47381;28.206;112.926;2022-07-06T08:07:41;37.30;;;26.98;;
41952;SDS011;47381;28.206;112.926;2022-07-06T08:10:11;35.30;;;26.23;;
41952;SDS011;47381;28.206;112.926;2022-07-06T08:12:39;33.83;;;26.20;;
41952;SDS011;47381;28.206;112.926;2022-07-06T08:15:06;34.88;;;26.65;;
41952;SDS011;47381;28.206;112.926;2022-07-06T08:17:34;33.67;;;25.77;;
41952;SDS011;47381;28.206;112.926;2022-07-06T08:20:01;35.47;;;26.52;;
41952;SDS011;47381;28.206;112.926;2022-07-06T08:22:28;34.58;;;25.48;;
41952;SDS011;47381;28.206;112.926;2022-07-06T08:24:57;34.13;;;25.83;;
41952;SDS011;47381;28.206;112.926;2022-07-06T08:27:24;37.42;;;26.20;;
41952;SDS011;47381;28.206;112.926;2022-07-06T08:29:51;33.70;;;25.23;;
41952;SDS011;47381;28.206;112.926;2022-07-06T08:32:18;34.72;;;25.83;;
41952;SDS011;47381;28.206;112.926;2022-07-06T08:34:46;31.83;;;24.50;;
41952;SDS011;47381;28.206;112.926;2022-07-06T08:37:16;32.30;;;24.42;;
41952;SDS011;47381;28.206;112.926;2022-07-06T08:39:43;30.60;;;23.63;;
41952;SDS011;47381;28.206;112.926;2022-07-06T08:42:11;32.45;;;24.80;;
41952;SDS011;47381;28.206;112.926;2022-07-06T08:44:41;33.38;;;24.58;;
41952;SDS011;47381;28.206;112.926;2022-07-06T08:47:10;32.35;;;23.30;;
41952;SDS011;47381;28.206;112.926;2022-07-06T08:49:40;33.17;;;24.42;;
41952;SDS011;47381;28.206;112.926;2022-07-06T08:52:09;34.20;;;24.33;;
41952;SDS011;47381;28.206;112.926;2022-07-06T08:54:37;32.78;;;23.80;;
41952;SDS011;47381;28.206;112.926;2022-07-06T08:57:05;33.28;;;23.73;;
41952;SDS011;47381;28.206;112.926;2022-07-06T08:59:33;31.25;;;24.27;;
41952;SDS011;47381;28.206;112.926;2022-07-06T09:02:00;28.83;;;22.95;;
41952;SDS011;47381;28.206;112.926;2022-07-06T09:04:29;28.90;;;21.85;;
41952;SDS011;47381;28.206;112.926;2022-07-06T09:06:58;28.33;;;21.35;;
41952;SDS011;47381;28.206;112.926;2022-07-06T09:09:25;30.48;;;21.30;;
41952;SDS011;47381;28.206;112.926;2022-07-06T09:11:56;23.40;;;19.17;;
41952;SDS011;47381;28.206;112.926;2022-07-06T09:14:26;24.92;;;18.67;;
41952;SDS011;47381;28.206;112.926;2022-07-06T09:17:04;20.33;;;17.05;;
41952;SDS011;47381;28.206;112.926;2022-07-06T09:19:35;22.10;;;17.33;;
41952;SDS011;47381;28.206;112.926;2022-07-06T09:22:04;20.02;;;15.02;;
41952;SDS011;47381;28.206;112.926;2022-07-06T09:24:37;21.27;;;15.43;;
41952;SDS011;47381;28.206;112.926;2022-07-06T09:27:14;20.63;;;16.65;;
41952;SDS011;47381;28.206;112.926;2022-07-06T09:29:43;21.60;;;15.25;;
41952;SDS011;47381;28.206;112.926;2022-07-06T09:32:11;16.90;;;14.15;;
41952;SDS011;47381;28.206;112.926;2022-07-06T09:34:41;16.52;;;13.40;;
41952;SDS011;47381;28.206;112.926;2022-07-06T09:37:09;18.92;;;12.88;;
41952;SDS011;47381;28.206;112.926;2022-07-06T09:39:37;18.00;;;13.50;;
41952;SDS011;47381;28.206;112.926;2022-07-06T09:42:04;18.13;;;12.82;;
41952;SDS011;47381;28.206;112.926;2022-07-06T09:44:34;14.95;;;12.38;;
41952;SDS011;47381;28.206;112.926;2022-07-06T09:47:04;18.40;;;12.77;;
41952;SDS011;47381;28.206;112.926;2022-07-06T09:49:51;17.30;;;13.52;;
41952;SDS011;47381;28.206;112.926;2022-07-06T09:52:22;15.77;;;12.52;;
41952;SDS011;47381;28.206;112.926;2022-07-06T09:54:50;17.20;;;13.20;;
41952;SDS011;47381;28.206;112.926;2022-07-06T09:57:17;18.38;;;13.80;;
41952;SDS011;47381;28.206;112.926;2022-07-06T09:59:49;17.17;;;12.98;;
41952;SDS011;47381;28.206;112.926;2022-07-06T10:02:17;19.80;;;13.18;;
41952;SDS011;47381;28.206;112.926;2022-07-06T10:04:47;17.20;;;13.00;;
41952;SDS011;47381;28.206;112.926;2022-07-06T10:07:15;14.05;;;12.02;;
41952;SDS011;47381;28.206;112.926;2022-07-06T10:09:43;20.77;;;13.07;;
41952;SDS011;47381;28.206;112.926;2022-07-06T10:12:12;19.15;;;12.70;;
41952;SDS011;47381;28.206;112.926;2022-07-06T10:14:46;18.80;;;12.57;;
41952;SDS011;47381;28.206;112.926;2022-07-06T10:17:13;20.73;;;14.48;;
41952;SDS011;47381;28.206;112.926;2022-07-06T10:19:41;17.17;;;12.48;;
41952;SDS011;47381;28.206;112.926;2022-07-06T10:22:09;19.70;;;12.38;;
41952;SDS011;47381;28.206;112.926;2022-07-06T10:24:38;19.92;;;12.40;;
41952;SDS011;47381;28.206;112.926;2022-07-06T10:27:09;26.90;;;16.35;;
41952;SDS011;47381;28.206;112.926;2022-07-06T10:29:36;39.83;;;20.08;;
41952;SDS011;47381;28.206;112.926;2022-07-06T10:32:04;36.80;;;19.13;;
41952;SDS011;47381;28.206;112.926;2022-07-06T10:34:32;33.40;;;18.38;;
41952;SDS011;47381;28.206;112.926;2022-07-06T10:37:02;32.05;;;17.33;;
41952;SDS011;47381;28.206;112.926;2022-07-06T10:39:38;28.65;;;16.75;;
41952;SDS011;47381;28.206;112.926;2022-07-06T10:45:06;31.20;;;15.98;;
41952;SDS011;47381;28.206;112.926;2022-07-06T10:47:36;23.52;;;15.25;;
41952;SDS011;47381;28.206;112.926;2022-07-06T10:50:03;27.42;;;16.27;;
41952;SDS011;47381;28.206;112.926;2022-07-06T10:52:50;24.70;;;16.02;;
41952;SDS011;47381;28.206;112.926;2022-07-06T10:57:57;23.77;;;16.05;;
41952;SDS011;47381;28.206;112.926;2022-07-06T11:00:25;25.67;;;15.27;;
41952;SDS011;47381;28.206;112.926;2022-07-06T11:06:00;21.17;;;14.95;;
41952;SDS011;47381;28.206;112.926;2022-07-06T11:19:19;21.85;;;13.52;;
41952;SDS011;47381;28.206;112.926;2022-07-06T11:21:52;18.67;;;13.40;;
41952;SDS011;47381;28.206;112.926;2022-07-06T11:24:26;17.35;;;13.38;;
41952;SDS011;47381;28.206;112.926;2022-07-06T11:26:55;18.75;;;13.52;;
41952;SDS011;47381;28.206;112.926;2022-07-06T11:29:24;17.98;;;12.52;;
41952;SDS011;47381;28.206;112.926;2022-07-06T11:31:54;25.52;;;16.98;;
41952;SDS011;47381;28.206;112.926;2022-07-06T11:34:41;37.78;;;21.40;;
41952;SDS011;47381;28.206;112.926;2022-07-06T11:37:12;59.97;;;26.00;;
41952;SDS011;47381;28.206;112.926;2022-07-06T11:39:41;60.67;;;29.27;;
41952;SDS011;47381;28.206;112.926;2022-07-06T11:42:10;67.25;;;30.05;;
41952;SDS011;47381;28.206;112.926;2022-07-06T11:44:38;72.57;;;31.02;;
41952;SDS011;47381;28.206;112.926;2022-07-06T11:47:11;71.90;;;31.13;;
41952;SDS011;47381;28.206;112.926;2022-07-06T11:49:40;86.00;;;36.60;;
41952;SDS011;47381;28.206;112.926;2022-07-06T11:52:09;85.72;;;38.80;;
41952;SDS011;47381;28.206;112.926;2022-07-06T11:54:38;95.85;;;38.80;;
41952;SDS011;47381;28.206;112.926;2022-07-06T12:00:14;95.47;;;41.33;;
41952;SDS011;47381;28.206;112.926;2022-07-06T12:03:00;95.05;;;39.75;;
41952;SDS011;47381;28.206;112.926;2022-07-06T12:05:33;99.50;;;43.05;;
41952;SDS011;47381;28.206;112.926;2022-07-06T12:08:07;113.72;;;44.30;;
41952;SDS011;47381;28.206;112.926;2022-07-06T12:10:37;100.05;;;43.28;;
41952;SDS011;47381;28.206;112.926;2022-07-06T12:13:05;96.72;;;42.25;;
41952;SDS011;47381;28.206;112.926;2022-07-06T12:15:32;103.35;;;44.25;;
41952;SDS011;47381;28.206;112.926;2022-07-06T12:17:59;110.93;;;47.20;;
41952;SDS011;47381;28.206;112.926;2022-07-06T12:20:26;111.80;;;48.58;;
41952;SDS011;47381;28.206;112.926;2022-07-06T12:23:03;115.78;;;50.83;;
41952;SDS011;47381;28.206;112.926;2022-07-06T12:25:35;118.28;;;48.92;;
41952;SDS011;47381;28.206;112.926;2022-07-06T12:28:03;120.72;;;51.25;;
41952;SDS011;47381;28.206;112.926;2022-07-06T12:30:48;115.57;;;51.70;;
41952;SDS011;47381;28.206;112.926;2022-07-06T12:33:22;125.60;;;53.17;;
41952;SDS011;47381;28.206;112.926;2022-07-06T12:36:15;133.68;;;56.30;;
41952;SDS011;47381;28.206;112.926;2022-07-06T12:38:46;122.63;;;52.70;;
41952;SDS011;47381;28.206;112.926;2022-07-06T12:42:15;126.15;;;55.47;;
41952;SDS011;47381;28.206;112.926;2022-07-06T12:44:12;123.40;;;52.78;;
41952;SDS011;47381;28.206;112.926;2022-07-06T12:46:49;132.13;;;56.33;;
41952;SDS011;47381;28.206;112.926;2022-07-06T12:50:07;124.07;;;55.45;;
41952;SDS011;47381;28.206;112.926;2022-07-06T12:52:48;124.47;;;54.33;;
41952;SDS011;47381;28.206;112.926;2022-07-06T12:56:07;121.07;;;52.93;;
41952;SDS011;47381;28.206;112.926;2022-07-06T12:58:35;127.53;;;53.22;;
41952;SDS011;47381;28.206;112.926;2022-07-06T13:03:59;119.38;;;53.72;;
41952;SDS011;47381;28.206;112.926;2022-07-06T13:06:41;118.43;;;52.35;;
41952;SDS011;47381;28.206;112.926;2022-07-06T13:09:44;113.35;;;54.65;;
41952;SDS011;47381;28.206;112.926;2022-07-06T13:12:29;115.93;;;50.97;;
41952;SDS011;47381;28.206;112.926;2022-07-06T13:15:23;109.15;;;49.85;;
41952;SDS011;47381;28.206;112.926;2022-07-06T13:18:08;116.93;;;52.05;;
41952;SDS011;47381;28.206;112.926;2022-07-06T13:20:56;119.85;;;52.15;;
41952;SDS011;47381;28.206;112.926;2022-07-06T13:23:23;111.25;;;51.30;;
41952;SDS011;47381;28.206;112.926;2022-07-06T13:26:10;113.22;;;51.90;;
41952;SDS011;47381;28.206;112.926;2022-07-06T13:28:40;110.93;;;52.22;;
41952;SDS011;47381;28.206;112.926;2022-07-06T13:31:12;106.35;;;51.38;;
41952;SDS011;47381;28.206;112.926;2022-07-06T13:33:39;104.78;;;50.63;;
41952;SDS011;47381;28.206;112.926;2022-07-06T13:36:07;110.97;;;50.03;;
41952;SDS011;47381;28.206;112.926;2022-07-06T13:38:34;90.70;;;47.20;;
41952;SDS011;47381;28.206;112.926;2022-07-06T13:41:01;94.43;;;45.45;;
41952;SDS011;47381;28.206;112.926;2022-07-06T13:43:29;91.70;;;46.38;;
41952;SDS011;47381;28.206;112.926;2022-07-06T13:46:18;93.72;;;44.75;;
41952;SDS011;47381;28.206;112.926;2022-07-06T13:48:52;90.30;;;43.40;;
41952;SDS011;47381;28.206;112.926;2022-07-06T13:51:20;81.28;;;39.58;;
41952;SDS011;47381;28.206;112.926;2022-07-06T13:54:20;78.53;;;39.17;;
41952;SDS011;47381;28.206;112.926;2022-07-06T13:56:40;69.65;;;36.42;;
41952;SDS011;47381;28.206;112.926;2022-07-06T13:59:07;63.35;;;35.15;;
41952;SDS011;47381;28.206;112.926;2022-07-06T14:01:34;58.85;;;34.08;;
41952;SDS011;47381;28.206;112.926;2022-07-06T14:04:02;60.88;;;33.53;;
41952;SDS011;47381;28.206;112.926;2022-07-06T14:06:30;65.80;;;33.83;;
41952;SDS011;47381;28.206;112.926;2022-07-06T14:08:57;68.07;;;35.13;;
41952;SDS011;47381;28.206;112.926;2022-07-06T14:11:28;72.93;;;35.13;;
41952;SDS011;47381;28.206;112.926;2022-07-06T14:13:55;73.45;;;35.78;;
41952;SDS011;47381;28.206;112.926;2022-07-06T14:16:22;66.03;;;34.67;;
41952;SDS011;47381;28.206;112.926;2022-07-06T14:18:52;61.70;;;32.92;;
41952;SDS011;47381;28.206;112.926;2022-07-06T14:21:23;56.97;;;32.30;;
41952;SDS011;47381;28.206;112.926;2022-07-06T14:23:53;56.03;;;31.10;;
41952;SDS011;47381;28.206;112.926;2022-07-06T14:26:42;58.13;;;30.08;;
41952;SDS011;47381;28.206;112.926;2022-07-06T14:29:09;49.40;;;27.70;;
41952;SDS011;47381;28.206;112.926;2022-07-06T14:31:38;55.55;;;30.83;;
41952;SDS011;47381;28.206;112.926;2022-07-06T14:34:05;55.22;;;29.95;;
41952;SDS011;47381;28.206;112.926;2022-07-06T14:36:32;58.35;;;30.20;;
41952;SDS011;47381;28.206;112.926;2022-07-06T14:39:19;62.03;;;31.17;;
41952;SDS011;47381;28.206;112.926;2022-07-06T14:41:46;54.88;;;30.58;;
41952;SDS011;47381;28.206;112.926;2022-07-06T14:44:13;54.10;;;30.55;;
41952;SDS011;47381;28.206;112.926;2022-07-06T14:46:40;50.53;;;28.85;;
41952;SDS011;47381;28.206;112.926;2022-07-06T14:49:10;50.33;;;28.65;;
41952;SDS011;47381;28.206;112.926;2022-07-06T14:51:37;49.63;;;28.02;;
41952;SDS011;47381;28.206;112.926;2022-07-06T14:54:07;48.10;;;26.77;;